createdAt,value
2023-04-16T00:00:43.408Z,8.69
2023-04-16T00:03:10.333Z,8.69
2023-04-16T00:05:37.026Z,8.75
2023-04-16T00:08:03.688Z,8.75
2023-04-16T00:10:30.281Z,8.69
2023-04-16T00:12:56.857Z,8.69
2023-04-16T00:15:23.584Z,8.69
2023-04-16T00:17:50.200Z,8.69
2023-04-16T00:20:16.894Z,8.69
2023-04-16T00:22:43.515Z,8.69
2023-04-16T00:25:10.292Z,8.69
2023-04-16T00:27:36.908Z,8.69
2023-04-16T00:30:03.713Z,8.63
2023-04-16T00:32:30.666Z,8.56
2023-04-16T00:34:57.257Z,8.69
2023-04-16T00:37:23.901Z,8.69
2023-04-16T00:39:50.985Z,8.63
2023-04-16T00:42:17.660Z,8.69
2023-04-16T00:44:44.248Z,8.75
2023-04-16T00:47:11.886Z,8.75
2023-04-16T00:49:38.901Z,8.69
2023-04-16T00:52:05.669Z,8.63
2023-04-16T00:54:32.566Z,8.75
2023-04-16T00:56:59.647Z,8.75
2023-04-16T00:59:27.273Z,8.75
2023-04-16T01:01:54.055Z,8.69
2023-04-16T01:04:21.405Z,8.63
2023-04-16T01:06:48.141Z,8.69
2023-04-16T01:09:14.736Z,8.63
2023-04-16T01:11:41.368Z,8.69
2023-04-16T01:14:08.486Z,8.69
2023-04-16T01:16:35.154Z,8.69
2023-04-16T01:19:02.952Z,8.69
2023-04-16T01:21:29.523Z,8.69
2023-04-16T01:23:56.097Z,8.75
2023-04-16T01:26:22.762Z,8.69
2023-04-16T01:28:49.375Z,8.75
2023-04-16T01:31:16.178Z,8.75
2023-04-16T01:33:42.882Z,8.75
2023-04-16T01:36:09.536Z,8.69
2023-04-16T01:38:36.193Z,8.69
2023-04-16T01:41:02.805Z,8.63
2023-04-16T01:43:29.389Z,8.63
2023-04-16T01:46:13.692Z,8.69
2023-04-16T01:48:40.778Z,8.75
2023-04-16T01:51:07.365Z,8.63
2023-04-16T01:53:35.795Z,8.69
2023-04-16T01:56:03.882Z,8.69
2023-04-16T01:58:31.266Z,8.69
2023-04-16T02:00:58.464Z,8.69
2023-04-16T02:03:25.533Z,8.69
2023-04-16T02:05:52.307Z,8.69
2023-04-16T02:08:19.173Z,8.75
2023-04-16T02:10:47.272Z,8.69
2023-04-16T02:13:15.802Z,8.63
2023-04-16T02:15:49.901Z,8.63
2023-04-16T02:18:16.794Z,8.69
2023-04-16T02:20:45.334Z,8.75
2023-04-16T02:23:12.241Z,8.69
2023-04-16T02:25:41.250Z,8.75
2023-04-16T02:28:09.120Z,8.69
2023-04-16T02:30:40.369Z,8.75
2023-04-16T02:33:08.646Z,8.81
2023-04-16T02:35:35.496Z,8.81
2023-04-16T02:38:04.236Z,8.81
2023-04-16T02:40:31.885Z,8.88
2023-04-16T02:42:58.491Z,8.81
2023-04-16T02:45:25.392Z,8.88
2023-04-16T02:47:52.167Z,8.88
2023-04-16T02:50:18.817Z,8.94
2023-04-16T02:52:45.443Z,8.88
2023-04-16T02:55:12.491Z,8.94
2023-04-16T02:57:39.113Z,8.94
2023-04-16T03:00:06.304Z,8.88
2023-04-16T03:02:32.996Z,8.94
2023-04-16T03:04:59.615Z,8.94
2023-04-16T03:07:26.296Z,8.94
2023-04-16T03:09:52.864Z,8.94
2023-04-16T03:12:19.450Z,8.94
2023-04-16T03:14:46.118Z,8.88
2023-04-16T03:17:12.805Z,8.94
2023-04-16T03:19:39.437Z,8.94
2023-04-16T03:22:06.211Z,8.88
2023-04-16T03:24:32.946Z,8.88
2023-04-16T03:26:59.572Z,8.88
2023-04-16T03:29:26.748Z,8.88
2023-04-16T03:31:53.433Z,8.88
2023-04-16T03:34:20.078Z,8.88
2023-04-16T03:36:46.753Z,8.88
2023-04-16T03:39:13.367Z,8.88
2023-04-16T03:41:40.006Z,8.81
2023-04-16T03:44:06.590Z,8.81
2023-04-16T03:46:33.252Z,8.81
2023-04-16T03:48:59.868Z,8.81
2023-04-16T03:51:26.480Z,8.88
2023-04-16T03:53:53.206Z,8.88
2023-04-16T03:56:19.800Z,8.88
2023-04-16T03:58:46.385Z,8.81
2023-04-16T04:01:13.010Z,8.81
2023-04-16T04:03:39.860Z,8.75
2023-04-16T04:06:08.351Z,8.69
2023-04-16T04:08:35.286Z,8.69
2023-04-16T04:11:01.883Z,8.75
2023-04-16T04:13:28.624Z,8.69
2023-04-16T04:15:55.411Z,8.75
2023-04-16T04:18:22.268Z,8.75
2023-04-16T04:20:48.875Z,8.75
2023-04-16T04:23:15.777Z,8.69
2023-04-16T04:25:42.391Z,8.69
2023-04-16T04:28:08.977Z,8.75
2023-04-16T04:30:38.635Z,8.75
2023-04-16T04:33:05.484Z,8.75
2023-04-16T04:35:32.255Z,8.75
2023-04-16T04:37:58.896Z,8.69
2023-04-16T04:40:25.553Z,8.75
2023-04-16T04:42:52.146Z,8.75
2023-04-16T04:45:19.201Z,8.63
2023-04-16T04:47:45.944Z,8.69
2023-04-16T04:50:12.625Z,8.63
2023-04-16T04:52:39.232Z,8.69
2023-04-16T04:55:06.116Z,8.75
2023-04-16T04:57:32.701Z,8.75
2023-04-16T04:59:59.303Z,8.75
2023-04-16T05:02:26.046Z,8.75
2023-04-16T05:04:52.738Z,8.75
2023-04-16T05:07:19.331Z,8.69
2023-04-16T05:09:46.024Z,8.69
2023-04-16T05:12:12.583Z,8.69
2023-04-16T05:14:39.208Z,8.69
2023-04-16T05:17:06.122Z,8.63
2023-04-16T05:19:32.766Z,8.69
2023-04-16T05:21:59.985Z,8.69
2023-04-16T05:24:26.586Z,8.69
2023-04-16T05:26:53.185Z,8.75
2023-04-16T05:29:20.069Z,8.75
2023-04-16T05:31:46.684Z,8.75
2023-04-16T05:34:13.344Z,8.75
2023-04-16T05:36:39.937Z,8.69
2023-04-16T05:39:07.785Z,8.75
2023-04-16T05:41:34.694Z,8.75
2023-04-16T05:44:01.280Z,8.75
2023-04-16T05:46:27.927Z,8.75
2023-04-16T05:48:54.713Z,8.81
2023-04-16T05:51:23.078Z,8.81
2023-04-16T05:53:49.645Z,8.75
2023-04-16T05:56:16.237Z,8.81
2023-04-16T05:58:42.821Z,8.75
2023-04-16T06:01:11.176Z,8.81
2023-04-16T06:03:37.878Z,8.81
2023-04-16T06:06:04.702Z,8.81
2023-04-16T06:08:31.379Z,8.88
2023-04-16T06:10:58.070Z,8.88
2023-04-16T06:13:24.995Z,8.81
2023-04-16T06:15:51.670Z,8.81
2023-04-16T06:18:18.420Z,8.81
2023-04-16T06:20:45.075Z,8.81
2023-04-16T06:23:11.650Z,8.94
2023-04-16T06:25:38.280Z,8.88
2023-04-16T06:28:05.204Z,8.94
2023-04-16T06:30:31.837Z,8.88
2023-04-16T06:32:58.771Z,8.94
2023-04-16T06:35:25.438Z,8.94
2023-04-16T06:37:52.194Z,8.94
2023-04-16T06:40:18.796Z,8.94
2023-04-16T06:42:45.845Z,9.00
2023-04-16T06:45:12.910Z,9.00
2023-04-16T06:47:39.588Z,9.00
2023-04-16T06:50:07.087Z,9.06
2023-04-16T06:52:33.858Z,9.06
2023-04-16T06:55:00.486Z,9.06
2023-04-16T06:57:27.102Z,9.00
2023-04-16T06:59:53.785Z,9.00
2023-04-16T07:02:20.760Z,9.06
2023-04-16T07:04:47.425Z,9.00
2023-04-16T07:07:14.046Z,9.00
2023-04-16T07:09:40.704Z,9.00
2023-04-16T07:12:08.147Z,9.06
2023-04-16T07:14:34.761Z,9.00
2023-04-16T07:17:01.387Z,9.06
2023-04-16T07:19:30.599Z,9.06
2023-04-16T07:21:57.201Z,9.13
2023-04-16T07:24:23.801Z,9.06
2023-04-16T07:26:50.493Z,9.13
2023-04-16T07:29:17.112Z,9.19
2023-04-16T07:31:44.609Z,9.25
2023-04-16T07:34:11.873Z,9.19
2023-04-16T07:36:38.857Z,9.25
2023-04-16T07:39:08.253Z,9.25
2023-04-16T07:41:35.309Z,9.25
2023-04-16T07:44:01.964Z,9.25
2023-04-16T07:46:39.356Z,9.25
2023-04-16T07:49:10.420Z,9.19
2023-04-16T07:51:37.172Z,9.31
2023-04-16T07:54:03.815Z,9.31
2023-04-16T07:56:30.476Z,9.25
2023-04-16T07:58:59.458Z,9.38
2023-04-16T08:01:30.164Z,9.25
2023-04-16T08:03:57.309Z,9.38
2023-04-16T08:06:24.636Z,9.31
2023-04-16T08:08:51.301Z,9.44
2023-04-16T08:11:18.149Z,9.38
2023-04-16T08:13:44.922Z,9.44
2023-04-16T08:16:11.767Z,9.50
2023-04-16T08:18:38.439Z,9.50
2023-04-16T08:21:05.097Z,9.56
2023-04-16T08:23:31.846Z,9.56
2023-04-16T08:25:58.446Z,9.63
2023-04-16T08:28:25.048Z,9.69
2023-04-16T08:30:51.741Z,9.69
2023-04-16T08:33:18.497Z,9.63
2023-04-16T08:35:45.130Z,9.63
2023-04-16T08:38:11.747Z,9.63
2023-04-16T08:40:40.055Z,9.69
2023-04-16T08:43:13.850Z,9.75
2023-04-16T08:45:42.889Z,9.75
2023-04-16T08:48:11.943Z,9.81
2023-04-16T08:50:40.725Z,9.94
2023-04-16T08:53:11.319Z,9.81
2023-04-16T08:55:46.257Z,9.81
2023-04-16T08:58:16.136Z,9.88
2023-04-16T09:00:44.035Z,9.94
2023-04-16T09:03:11.343Z,10.00
2023-04-16T09:05:39.473Z,10.00
2023-04-16T09:08:06.883Z,10.13
2023-04-16T09:10:34.557Z,10.19
2023-04-16T09:13:01.541Z,10.13
2023-04-16T09:15:29.383Z,10.13
2023-04-16T09:17:57.560Z,10.19
2023-04-16T09:20:24.615Z,10.25
2023-04-16T09:22:51.309Z,10.13
2023-04-16T09:25:21.485Z,10.19
2023-04-16T09:27:51.126Z,10.25
2023-04-16T09:30:25.581Z,10.19
2023-04-16T09:33:11.539Z,10.25
2023-04-16T09:35:49.597Z,10.31
2023-04-16T09:38:16.979Z,10.31
2023-04-16T09:40:44.009Z,10.38
2023-04-16T09:43:18.373Z,10.25
2023-04-16T09:45:53.231Z,10.25
2023-04-16T09:48:32.778Z,10.38
2023-04-16T09:51:00.709Z,10.38
2023-04-16T09:53:29.678Z,10.38
2023-04-16T09:56:05.117Z,10.44
2023-04-16T09:58:32.648Z,10.38
2023-04-16T10:01:03.379Z,10.31
2023-04-16T10:03:34.875Z,10.25
2023-04-16T10:06:09.389Z,10.31
2023-04-16T10:08:36.276Z,10.44
2023-04-16T10:11:02.959Z,10.44
2023-04-16T10:13:31.164Z,10.44
2023-04-16T10:15:58.728Z,10.38
2023-04-16T10:18:25.637Z,10.50
2023-04-16T10:20:52.861Z,10.38
2023-04-16T10:23:21.916Z,10.38
2023-04-16T10:25:50.318Z,10.50
2023-04-16T10:28:17.356Z,10.50
2023-04-16T10:30:52.681Z,10.50
2023-04-16T10:33:25.647Z,10.63
2023-04-16T10:36:07.698Z,10.56
2023-04-16T10:38:35.426Z,10.56
2023-04-16T10:41:04.641Z,10.63
2023-04-16T10:43:44.046Z,10.63
2023-04-16T10:46:19.980Z,10.69
2023-04-16T10:48:50.301Z,10.63
2023-04-16T10:51:29.409Z,10.63
2023-04-16T10:54:08.887Z,10.63
2023-04-16T10:56:37.062Z,10.69
2023-04-16T10:59:11.551Z,10.69
2023-04-16T11:01:43.433Z,10.69
2023-04-16T11:04:22.392Z,10.69
2023-04-16T11:07:05.135Z,10.81
2023-04-16T11:09:47.149Z,10.88
2023-04-16T11:12:16.315Z,10.94
2023-04-16T11:14:43.515Z,10.81
2023-04-16T11:17:10.313Z,10.75
2023-04-16T11:19:38.212Z,10.81
2023-04-16T11:22:05.654Z,10.94
2023-04-16T11:24:32.982Z,10.88
2023-04-16T11:27:00.204Z,10.88
2023-04-16T11:29:26.839Z,10.94
2023-04-16T11:31:54.865Z,10.88
2023-04-16T11:34:22.158Z,10.94
2023-04-16T11:36:51.271Z,10.94
2023-04-16T11:39:19.134Z,10.88
2023-04-16T11:41:48.145Z,10.88
2023-04-16T11:44:20.834Z,10.94
2023-04-16T11:46:47.992Z,11.06
2023-04-16T11:49:15.504Z,10.94
2023-04-16T11:51:44.315Z,11.00
2023-04-16T11:54:25.267Z,11.13
2023-04-16T11:56:53.689Z,11.06
2023-04-16T11:59:23.087Z,11.06
2023-04-16T12:01:56.091Z,11.25
2023-04-16T12:04:27.394Z,11.25
2023-04-16T12:07:14.156Z,11.13
2023-04-16T12:09:43.027Z,11.19
2023-04-16T12:12:30.846Z,11.19
2023-04-16T12:15:00.218Z,11.19
2023-04-16T12:17:26.978Z,11.25
2023-04-16T12:19:58.767Z,11.31
2023-04-16T12:22:33.585Z,11.25
2023-04-16T12:25:11.662Z,11.44
2023-04-16T12:27:53.828Z,11.50
2023-04-16T12:30:24.313Z,11.44
2023-04-16T12:32:55.551Z,11.38
2023-04-16T12:35:31.492Z,11.44
2023-04-16T12:37:58.673Z,11.31
2023-04-16T12:40:25.496Z,11.38
2023-04-16T12:42:52.483Z,11.25
2023-04-16T12:45:19.435Z,11.19
2023-04-16T12:47:46.765Z,11.38
2023-04-16T12:50:13.389Z,11.44
2023-04-16T12:52:39.998Z,11.56
2023-04-16T12:55:07.036Z,11.63
2023-04-16T12:57:33.664Z,11.69
2023-04-16T13:00:00.335Z,11.63
2023-04-16T13:02:27.434Z,11.69
2023-04-16T13:04:54.568Z,11.63
2023-04-16T13:07:21.495Z,11.69
2023-04-16T13:09:48.166Z,11.69
2023-04-16T13:12:14.826Z,11.56
2023-04-16T13:14:43.364Z,11.56
2023-04-16T13:17:11.670Z,11.69
2023-04-16T13:19:38.248Z,11.75
2023-04-16T13:22:04.852Z,11.69
2023-04-16T13:24:31.508Z,11.75
2023-04-16T13:26:58.293Z,11.88
2023-04-16T13:29:24.910Z,11.88
2023-04-16T13:31:52.208Z,11.75
2023-04-16T13:34:18.926Z,11.75
2023-04-16T13:36:45.686Z,11.88
2023-04-16T13:39:12.440Z,11.88
2023-04-16T13:41:39.236Z,11.94
2023-04-16T13:44:06.782Z,11.75
2023-04-16T13:46:33.765Z,11.88
2023-04-16T13:49:00.559Z,11.81
2023-04-16T13:51:27.862Z,11.81
2023-04-16T13:53:55.945Z,11.81
2023-04-16T13:56:22.702Z,11.81
2023-04-16T13:58:49.690Z,11.88
2023-04-16T14:01:17.338Z,11.81
2023-04-16T14:03:44.339Z,11.75
2023-04-16T14:06:11.163Z,11.81
2023-04-16T14:08:38.284Z,11.88
2023-04-16T14:11:06.409Z,11.81
2023-04-16T14:13:33.328Z,12.00
2023-04-16T14:16:00.007Z,12.06
2023-04-16T14:18:26.619Z,12.13
2023-04-16T14:20:53.303Z,12.06
2023-04-16T14:23:19.929Z,12.06
2023-04-16T14:25:46.586Z,12.13
2023-04-16T14:28:15.085Z,12.19
2023-04-16T14:30:42.371Z,12.44
2023-04-16T14:33:09.231Z,12.38
2023-04-16T14:35:36.064Z,12.38
2023-04-16T14:38:02.864Z,12.38
2023-04-16T14:40:29.915Z,12.25
2023-04-16T14:42:56.556Z,12.19
2023-04-16T14:45:25.349Z,12.19
2023-04-16T14:47:52.073Z,12.25
2023-04-16T14:50:18.753Z,12.13
2023-04-16T14:52:45.434Z,12.06
2023-04-16T14:55:12.198Z,12.19
2023-04-16T14:57:39.004Z,12.38
2023-04-16T15:00:13.508Z,12.38
2023-04-16T15:02:40.621Z,12.13
2023-04-16T15:05:10.092Z,12.19
2023-04-16T15:07:37.193Z,12.25
2023-04-16T15:10:04.418Z,12.13
2023-04-16T15:12:31.145Z,12.13
2023-04-16T15:14:57.763Z,12.38
2023-04-16T15:17:24.450Z,12.50
2023-04-16T15:19:52.176Z,12.56
2023-04-16T15:22:18.797Z,12.69
2023-04-16T15:24:45.400Z,12.44
2023-04-16T15:27:13.896Z,12.63
2023-04-16T15:29:40.510Z,12.63
2023-04-16T15:32:07.129Z,12.38
2023-04-16T15:34:33.750Z,12.38
2023-04-16T15:37:00.456Z,12.50
2023-04-16T15:39:27.129Z,12.31
2023-04-16T15:42:01.481Z,12.31
2023-04-16T15:44:31.091Z,12.38
2023-04-16T15:46:57.850Z,12.38
2023-04-16T15:49:24.869Z,12.31
2023-04-16T15:51:52.181Z,12.31
2023-04-16T15:54:19.244Z,12.31
2023-04-16T15:56:46.678Z,12.06
2023-04-16T15:59:13.653Z,12.13
2023-04-16T16:01:40.852Z,12.25
2023-04-16T16:04:08.301Z,12.31
2023-04-16T16:06:35.784Z,12.25
2023-04-16T16:09:02.448Z,12.19
2023-04-16T16:11:29.134Z,11.94
2023-04-16T16:13:55.709Z,12.00
2023-04-16T16:16:22.344Z,12.00
2023-04-16T16:18:48.975Z,12.00
2023-04-16T16:21:16.113Z,12.06
2023-04-16T16:23:42.692Z,12.00
2023-04-16T16:26:09.400Z,11.94
2023-04-16T16:28:38.944Z,11.94
2023-04-16T16:31:07.078Z,11.94
2023-04-16T16:33:33.698Z,11.88
2023-04-16T16:36:00.575Z,11.94
2023-04-16T16:38:27.593Z,11.75
2023-04-16T16:40:54.231Z,11.69
2023-04-16T16:43:20.948Z,11.44
2023-04-16T16:45:47.601Z,11.63
2023-04-16T16:48:14.258Z,11.56
2023-04-16T16:50:40.991Z,11.63
2023-04-16T16:53:07.641Z,11.63
2023-04-16T16:55:35.498Z,11.69
2023-04-16T16:58:02.899Z,11.63
2023-04-16T17:00:29.472Z,11.50
2023-04-16T17:02:56.173Z,11.63
2023-04-16T17:05:22.846Z,11.56
2023-04-16T17:07:49.501Z,11.56
2023-04-16T17:10:20.238Z,11.63
2023-04-16T17:12:51.091Z,11.50
2023-04-16T17:15:21.175Z,11.50
2023-04-16T17:17:48.499Z,11.44
2023-04-16T17:20:15.699Z,11.38
2023-04-16T17:22:42.550Z,11.31
2023-04-16T17:25:10.193Z,11.19
2023-04-16T17:27:36.904Z,11.31
2023-04-16T17:30:05.782Z,11.06
2023-04-16T17:32:33.049Z,10.94
2023-04-16T17:35:01.112Z,10.88
2023-04-16T17:37:28.522Z,10.81
2023-04-16T17:39:55.214Z,10.94
2023-04-16T17:42:21.890Z,10.94
2023-04-16T17:44:48.537Z,10.81
2023-04-16T17:47:15.326Z,10.81
2023-04-16T17:49:41.959Z,10.69
2023-04-16T17:52:08.600Z,10.81
2023-04-16T17:54:35.257Z,10.81
2023-04-16T17:57:02.128Z,10.75
2023-04-16T17:59:28.986Z,10.69
2023-04-16T18:01:56.601Z,10.63
2023-04-16T18:04:23.717Z,10.50
2023-04-16T18:06:50.748Z,10.56
2023-04-16T18:09:19.176Z,10.56
2023-04-16T18:11:45.863Z,10.44
2023-04-16T18:14:16.559Z,10.44
2023-04-16T18:16:43.197Z,10.38
2023-04-16T18:19:09.765Z,10.25
2023-04-16T18:21:36.409Z,10.13
2023-04-16T18:24:03.503Z,10.38
2023-04-16T18:26:30.382Z,10.44
2023-04-16T18:28:57.099Z,10.50
2023-04-16T18:31:23.862Z,10.44
2023-04-16T18:33:57.295Z,10.31
2023-04-16T18:36:26.635Z,10.38
2023-04-16T18:39:01.578Z,10.31
2023-04-16T18:41:29.681Z,10.06
2023-04-16T18:43:56.604Z,10.13
2023-04-16T18:46:23.311Z,10.19
2023-04-16T18:48:50.079Z,10.06
2023-04-16T18:51:16.919Z,10.00
2023-04-16T18:53:45.435Z,10.00
2023-04-16T18:56:12.517Z,10.19
2023-04-16T18:58:39.120Z,10.25
2023-04-16T19:01:10.739Z,10.19
2023-04-16T19:03:38.069Z,10.06
2023-04-16T19:06:05.087Z,10.06
2023-04-16T19:08:31.937Z,10.06
2023-04-16T19:10:58.556Z,9.88
2023-04-16T19:13:25.325Z,10.00
2023-04-16T19:15:52.040Z,9.94
2023-04-16T19:18:18.654Z,10.06
2023-04-16T19:20:45.280Z,9.94
2023-04-16T19:23:13.054Z,9.81
2023-04-16T19:25:39.670Z,9.81
2023-04-16T19:28:06.624Z,9.81
2023-04-16T19:30:33.450Z,9.81
2023-04-16T19:33:00.169Z,9.88
2023-04-16T19:35:27.114Z,9.88
2023-04-16T19:37:56.188Z,9.81
2023-04-16T19:40:22.824Z,9.69
2023-04-16T19:42:49.474Z,9.69
2023-04-16T19:45:17.598Z,9.69
2023-04-16T19:47:44.687Z,9.69
2023-04-16T19:50:11.689Z,9.69
2023-04-16T19:52:39.039Z,9.75
2023-04-16T19:55:06.982Z,9.69
2023-04-16T19:57:33.727Z,9.69
2023-04-16T20:00:00.418Z,9.50
2023-04-16T20:02:27.286Z,9.50
2023-04-16T20:04:54.050Z,9.56
2023-04-16T20:07:20.672Z,9.69
2023-04-16T20:09:47.381Z,9.75
2023-04-16T20:12:14.379Z,9.81
2023-04-16T20:14:41.916Z,9.75
2023-04-16T20:17:09.926Z,9.69
2023-04-16T20:19:40.251Z,9.75
2023-04-16T20:22:07.048Z,9.75
2023-04-16T20:24:34.294Z,9.63
2023-04-16T20:27:01.727Z,9.56
2023-04-16T20:29:28.420Z,9.56
2023-04-16T20:31:55.031Z,9.63
2023-04-16T20:34:21.628Z,9.50
2023-04-16T20:36:48.305Z,9.44
2023-04-16T20:39:20.149Z,9.50
2023-04-16T20:41:57.017Z,9.44
2023-04-16T20:44:26.204Z,9.44
2023-04-16T20:46:56.227Z,9.38
2023-04-16T20:49:24.865Z,9.38
2023-04-16T20:51:51.491Z,9.31
2023-04-16T20:54:18.137Z,9.19
2023-04-16T20:56:44.917Z,9.31
2023-04-16T20:59:13.277Z,9.31
2023-04-16T21:01:40.011Z,9.31
2023-04-16T21:04:07.139Z,9.38
2023-04-16T21:06:38.296Z,9.38
2023-04-16T21:09:06.023Z,9.38
2023-04-16T21:11:34.667Z,9.25
2023-04-16T21:14:05.708Z,9.13
2023-04-16T21:16:32.718Z,9.13
2023-04-16T21:18:59.351Z,9.19
2023-04-16T21:21:27.402Z,9.25
2023-04-16T21:23:54.680Z,9.31
2023-04-16T21:26:21.370Z,9.44
2023-04-16T21:28:48.292Z,9.31
2023-04-16T21:31:15.031Z,9.19
2023-04-16T21:33:41.658Z,9.19
2023-04-16T21:36:08.393Z,9.06
2023-04-16T21:38:34.985Z,9.06
2023-04-16T21:41:01.782Z,9.13
2023-04-16T21:43:32.133Z,9.06
2023-04-16T21:45:59.477Z,9.13
2023-04-16T21:48:26.998Z,9.25
2023-04-16T21:50:57.991Z,9.13
2023-04-16T21:53:31.923Z,9.13
2023-04-16T21:55:58.867Z,9.13
2023-04-16T21:58:25.952Z,9.13
2023-04-16T22:00:53.031Z,9.06
2023-04-16T22:03:19.902Z,9.06
2023-04-16T22:05:46.675Z,9.00
2023-04-16T22:08:24.105Z,9.06
2023-04-16T22:10:51.726Z,9.00
2023-04-16T22:13:18.372Z,9.00
2023-04-16T22:15:44.997Z,8.94
2023-04-16T22:18:11.682Z,9.00
2023-04-16T22:20:38.997Z,9.00
2023-04-16T22:23:06.547Z,9.06
2023-04-16T22:25:33.685Z,9.06
2023-04-16T22:28:01.529Z,8.94
2023-04-16T22:30:28.295Z,8.88
2023-04-16T22:32:55.114Z,9.00
2023-04-16T22:35:21.966Z,9.00
2023-04-16T22:37:48.555Z,8.88
2023-04-16T22:40:15.788Z,8.88
2023-04-16T22:42:42.680Z,8.88
2023-04-16T22:45:09.664Z,8.81
2023-04-16T22:47:36.392Z,8.88
2023-04-16T22:50:03.236Z,8.88
2023-04-16T22:52:29.864Z,8.88
2023-04-16T22:54:56.537Z,8.94
2023-04-16T22:57:25.538Z,8.94
2023-04-16T22:59:53.259Z,9.00
2023-04-16T23:02:21.101Z,8.94
2023-04-16T23:04:48.049Z,8.88
2023-04-16T23:07:15.540Z,8.81
2023-04-16T23:09:42.544Z,8.88
2023-04-16T23:12:09.205Z,8.88
2023-04-16T23:14:36.910Z,8.81
2023-04-16T23:17:03.819Z,8.81
2023-04-16T23:19:31.716Z,8.88
2023-04-16T23:21:58.683Z,8.88
2023-04-16T23:24:25.396Z,8.81
2023-04-16T23:26:52.690Z,8.75
2023-04-16T23:29:20.567Z,8.88
2023-04-16T23:31:47.353Z,8.81
2023-04-16T23:34:13.985Z,8.81
2023-04-16T23:36:40.834Z,8.81
2023-04-16T23:39:07.539Z,8.75
2023-04-16T23:41:34.738Z,8.81
2023-04-16T23:44:01.396Z,8.81
2023-04-16T23:46:28.024Z,8.75
2023-04-16T23:48:55.442Z,8.75
2023-04-16T23:51:22.270Z,8.75
2023-04-16T23:53:48.957Z,8.75
2023-04-16T23:56:15.929Z,8.75
2023-04-16T23:58:42.576Z,8.75
